createdAt,value
2023-03-22T00:01:55.569Z,95.50
2023-03-22T00:04:42.888Z,95.50
2023-03-22T00:07:28.292Z,95.90
2023-03-22T00:10:13.721Z,94.80
2023-03-22T00:13:00.322Z,94.80
2023-03-22T00:15:45.817Z,94.40
2023-03-22T00:18:31.774Z,94.70
2023-03-22T00:21:18.337Z,94.50
2023-03-22T00:24:04.218Z,94.90
2023-03-22T00:26:49.794Z,95.00
2023-03-22T00:29:35.443Z,94.80
2023-03-22T00:32:20.963Z,94.90
2023-03-22T00:35:07.518Z,95.80
2023-03-22T00:37:53.088Z,95.00
2023-03-22T00:40:38.900Z,95.20
2023-03-22T00:43:24.433Z,95.80
2023-03-22T00:46:11.423Z,96.20
2023-03-22T00:48:57.114Z,95.50
2023-03-22T00:51:42.469Z,95.90
2023-03-22T00:54:28.432Z,95.70
2023-03-22T00:57:14.547Z,95.60
2023-03-22T00:59:59.917Z,95.60
2023-03-22T01:02:45.482Z,96.20
2023-03-22T01:05:32.496Z,95.80
2023-03-22T01:08:18.279Z,95.20
2023-03-22T01:11:04.043Z,95.10
2023-03-22T01:13:49.931Z,95.20
2023-03-22T01:16:37.210Z,95.70
2023-03-22T01:19:23.824Z,96.00
2023-03-22T01:22:09.491Z,95.90
2023-03-22T01:24:54.933Z,95.30
2023-03-22T01:27:40.403Z,95.80
2023-03-22T01:30:25.804Z,96.00
2023-03-22T01:33:11.212Z,95.30
2023-03-22T01:35:56.938Z,95.50
2023-03-22T01:38:42.469Z,95.70
2023-03-22T01:41:28.065Z,96.40
2023-03-22T01:44:21.115Z,96.20
2023-03-22T01:47:10.923Z,98.40
2023-03-22T01:49:56.559Z,96.40
2023-03-22T01:52:42.044Z,96.20
2023-03-22T01:55:28.206Z,96.50
2023-03-22T01:58:16.576Z,96.20
2023-03-22T02:01:05.450Z,97.00
2023-03-22T02:03:58.702Z,96.90
2023-03-22T02:06:45.338Z,97.30
2023-03-22T02:09:30.764Z,97.20
2023-03-22T02:12:33.941Z,96.80
2023-03-22T02:15:29.858Z,97.30
2023-03-22T02:18:49.590Z,96.90
2023-03-22T02:22:13.291Z,95.90
2023-03-22T02:25:28.063Z,99.90
2023-03-22T02:28:49.245Z,97.90
2023-03-22T02:32:17.318Z,98.50
2023-03-22T02:36:26.256Z,97.10
2023-03-22T02:39:28.836Z,99.90
2023-03-22T02:42:50.503Z,99.90
2023-03-22T02:46:07.283Z,99.90
2023-03-22T02:49:02.502Z,97.80
2023-03-22T02:52:00.088Z,96.40
2023-03-22T02:55:29.638Z,97.00
2023-03-22T02:58:46.957Z,99.90
2023-03-22T03:01:55.926Z,98.20
2023-03-22T03:04:48.286Z,98.10
2023-03-22T03:07:34.924Z,96.30
2023-03-22T03:10:21.379Z,95.60
2023-03-22T03:13:13.761Z,95.10
2023-03-22T03:16:01.522Z,95.00
2023-03-22T03:19:14.073Z,96.10
2023-03-22T03:22:37.161Z,96.30
2023-03-22T03:25:51.615Z,97.80
2023-03-22T03:28:52.156Z,96.90
2023-03-22T03:31:51.633Z,96.00
2023-03-22T03:34:52.348Z,96.00
2023-03-22T03:37:51.420Z,97.50
2023-03-22T03:41:00.822Z,97.80
2023-03-22T03:43:48.466Z,99.90
2023-03-22T03:46:33.889Z,97.30
2023-03-22T03:49:20.750Z,97.20
2023-03-22T03:52:06.481Z,96.70
2023-03-22T03:54:52.585Z,96.90
2023-03-22T03:57:38.019Z,96.50
2023-03-22T04:00:23.665Z,96.90
2023-03-22T04:03:10.124Z,97.10
2023-03-22T04:05:55.591Z,96.70
2023-03-22T04:08:40.955Z,96.00
2023-03-22T04:11:26.368Z,97.30
2023-03-22T04:14:11.893Z,97.30
2023-03-22T04:16:57.456Z,96.90
2023-03-22T04:19:43.430Z,96.30
2023-03-22T04:22:28.811Z,96.20
2023-03-22T04:25:16.053Z,96.50
2023-03-22T04:28:01.966Z,97.60
2023-03-22T04:30:48.190Z,97.00
2023-03-22T04:33:33.727Z,96.40
2023-03-22T04:36:19.133Z,95.60
2023-03-22T04:39:10.057Z,95.30
2023-03-22T04:41:55.775Z,95.10
2023-03-22T04:44:41.186Z,96.10
2023-03-22T04:47:26.849Z,96.40
2023-03-22T04:50:12.719Z,96.90
2023-03-22T04:52:58.206Z,95.90
2023-03-22T04:55:43.532Z,95.80
2023-03-22T04:58:29.171Z,95.20
2023-03-22T05:01:18.219Z,95.70
2023-03-22T05:04:04.447Z,95.70
2023-03-22T05:06:50.190Z,95.90
2023-03-22T05:09:35.619Z,96.50
2023-03-22T05:12:21.063Z,97.00
2023-03-22T05:15:08.056Z,97.50
2023-03-22T05:17:54.067Z,96.30
2023-03-22T05:20:41.180Z,96.40
2023-03-22T05:23:27.011Z,95.80
2023-03-22T05:26:13.531Z,95.90
2023-03-22T05:28:59.246Z,95.30
2023-03-22T05:31:44.937Z,95.30
2023-03-22T05:34:30.490Z,96.10
2023-03-22T05:37:16.459Z,95.80
2023-03-22T05:40:02.594Z,95.80
2023-03-22T05:42:48.501Z,96.00
2023-03-22T05:45:36.879Z,95.50
2023-03-22T05:48:22.673Z,95.60
2023-03-22T05:51:12.418Z,95.20
2023-03-22T05:53:57.862Z,95.20
2023-03-22T05:56:43.659Z,96.80
2023-03-22T05:59:28.945Z,96.10
2023-03-22T06:02:14.518Z,96.10
2023-03-22T06:05:00.424Z,96.30
2023-03-22T06:07:45.779Z,96.10
2023-03-22T06:10:31.056Z,96.70
2023-03-22T06:13:17.506Z,96.00
2023-03-22T06:16:04.855Z,96.30
2023-03-22T06:18:50.764Z,96.20
2023-03-22T06:21:36.766Z,96.00
2023-03-22T06:24:22.477Z,95.80
2023-03-22T06:27:08.431Z,96.30
2023-03-22T06:29:53.860Z,96.10
2023-03-22T06:32:39.252Z,97.20
2023-03-22T06:35:24.918Z,96.50
2023-03-22T06:38:10.771Z,96.10
2023-03-22T06:40:56.547Z,96.30
2023-03-22T06:43:42.276Z,96.60
2023-03-22T06:46:27.680Z,97.20
2023-03-22T06:49:13.044Z,96.60
2023-03-22T06:51:58.428Z,96.50
2023-03-22T06:54:43.818Z,96.50
2023-03-22T06:57:29.204Z,97.00
2023-03-22T07:00:15.584Z,96.50
2023-03-22T07:03:01.184Z,96.30
2023-03-22T07:05:46.653Z,95.80
2023-03-22T07:08:32.442Z,96.40
2023-03-22T07:11:18.131Z,95.90
2023-03-22T07:14:03.711Z,96.40
2023-03-22T07:16:49.901Z,96.20
2023-03-22T07:19:36.026Z,96.20
2023-03-22T07:22:21.651Z,95.70
2023-03-22T07:25:07.757Z,95.90
2023-03-22T07:27:53.075Z,95.80
2023-03-22T07:30:40.019Z,95.90
2023-03-22T07:33:25.845Z,96.00
2023-03-22T07:36:12.133Z,97.10
2023-03-22T07:39:01.663Z,96.00
2023-03-22T07:41:47.419Z,96.90
2023-03-22T07:44:36.913Z,95.70
2023-03-22T07:47:39.539Z,95.70
2023-03-22T07:50:26.396Z,95.50
2023-03-22T07:53:12.681Z,94.80
2023-03-22T07:55:58.032Z,94.70
2023-03-22T07:58:43.641Z,95.00
2023-03-22T08:01:29.221Z,94.80
2023-03-22T08:04:14.508Z,94.60
2023-03-22T08:06:59.866Z,94.70
2023-03-22T08:09:45.976Z,95.00
2023-03-22T08:12:31.856Z,95.00
2023-03-22T08:15:17.249Z,94.70
2023-03-22T08:18:02.728Z,94.50
2023-03-22T08:20:56.567Z,93.70
2023-03-22T08:23:42.619Z,95.20
2023-03-22T08:26:28.670Z,93.20
2023-03-22T08:29:14.248Z,92.50
2023-03-22T08:31:59.832Z,92.20
2023-03-22T08:34:45.311Z,92.20
2023-03-22T08:37:30.777Z,92.60
2023-03-22T08:40:16.198Z,92.20
2023-03-22T08:43:01.584Z,91.80
2023-03-22T08:45:46.955Z,91.40
2023-03-22T08:48:32.595Z,90.50
2023-03-22T08:51:23.022Z,90.10
2023-03-22T08:54:09.076Z,88.40
2023-03-22T08:56:54.781Z,88.80
2023-03-22T08:59:40.465Z,89.70
2023-03-22T09:02:26.457Z,90.10
2023-03-22T09:05:12.444Z,89.80
2023-03-22T09:08:05.916Z,87.10
2023-03-22T09:10:52.416Z,87.10
2023-03-22T09:13:38.629Z,87.40
2023-03-22T09:16:24.326Z,87.10
2023-03-22T09:19:10.118Z,89.90
2023-03-22T09:21:56.056Z,90.00
2023-03-22T09:24:41.522Z,88.00
2023-03-22T09:27:26.753Z,87.50
2023-03-22T09:30:12.974Z,85.90
2023-03-22T09:32:59.036Z,85.10
2023-03-22T09:35:44.853Z,87.80
2023-03-22T09:38:30.512Z,89.40
2023-03-22T09:41:38.334Z,89.40
2023-03-22T09:44:50.264Z,89.90
2023-03-22T09:47:44.781Z,90.00
2023-03-22T09:50:33.065Z,77.10
2023-03-22T09:53:21.464Z,83.30
2023-03-22T09:56:26.153Z,87.70
2023-03-22T09:59:52.760Z,86.80
2023-03-22T10:03:09.424Z,88.90
2023-03-22T10:06:20.884Z,87.70
2023-03-22T10:10:06.459Z,82.80
2023-03-22T10:13:31.161Z,80.70
2023-03-22T10:16:28.893Z,60.80
2023-03-22T10:19:28.100Z,61.70
2023-03-22T10:22:19.656Z,64.20
2023-03-22T10:25:08.690Z,65.40
2023-03-22T10:27:55.133Z,70.80
2023-03-22T10:30:43.139Z,77.20
2023-03-22T10:33:51.815Z,74.30
2023-03-22T10:36:40.776Z,65.90
2023-03-22T10:39:41.166Z,76.90
2023-03-22T10:42:30.360Z,80.40
2023-03-22T10:45:16.451Z,78.30
2023-03-22T10:48:19.184Z,64.60
2023-03-22T10:51:06.679Z,63.80
2023-03-22T10:53:55.635Z,73.20
2023-03-22T10:56:41.121Z,83.80
2023-03-22T10:59:46.919Z,92.70
2023-03-22T11:02:33.076Z,81.50
2023-03-22T11:05:30.239Z,98.60
2023-03-22T11:08:15.634Z,90.10
2023-03-22T11:11:02.668Z,98.30
2023-03-22T11:14:16.509Z,97.20
2023-03-22T11:17:24.419Z,96.40
2023-03-22T11:20:19.473Z,84.80
2023-03-22T11:23:05.956Z,96.80
2023-03-22T11:25:56.932Z,96.40
2023-03-22T11:28:50.987Z,95.20
2023-03-22T11:32:26.704Z,87.70
2023-03-22T11:35:22.725Z,74.00
2023-03-22T11:38:40.942Z,82.30
2023-03-22T11:41:31.075Z,85.20
2023-03-22T11:44:20.760Z,91.50
2023-03-22T11:47:08.783Z,91.80
2023-03-22T11:50:09.432Z,86.60
2023-03-22T11:52:55.819Z,81.60
2023-03-22T11:55:43.616Z,90.00
2023-03-22T11:59:14.367Z,90.60
2023-03-22T12:02:50.859Z,66.60
2023-03-22T12:05:44.409Z,62.90
2023-03-22T12:09:03.971Z,85.30
2023-03-22T12:12:19.644Z,69.40
2023-03-22T12:15:28.782Z,68.00
2023-03-22T12:18:38.443Z,74.60
2023-03-22T12:21:24.009Z,75.10
2023-03-22T12:24:31.605Z,83.70
2023-03-22T12:27:36.147Z,80.30
2023-03-22T12:30:33.619Z,81.70
2023-03-22T12:33:40.525Z,81.70
2023-03-22T12:36:47.769Z,73.30
2023-03-22T12:39:43.286Z,78.90
2023-03-22T12:43:00.318Z,69.30
2023-03-22T12:45:58.160Z,79.70
2023-03-22T12:49:01.280Z,72.60
2023-03-22T12:51:48.996Z,79.60
2023-03-22T12:54:35.777Z,78.50
2023-03-22T12:57:21.374Z,77.70
2023-03-22T13:00:15.242Z,77.40
2023-03-22T13:03:28.024Z,78.40
2023-03-22T13:06:43.039Z,77.00
2023-03-22T13:09:28.484Z,67.30
2023-03-22T13:12:17.102Z,77.80
2023-03-22T13:15:13.266Z,75.10
2023-03-22T13:18:00.149Z,78.30
2023-03-22T13:21:19.638Z,79.00
2023-03-22T13:24:08.264Z,69.20
2023-03-22T13:26:55.362Z,78.30
2023-03-22T13:29:41.766Z,77.10
2023-03-22T13:32:32.595Z,76.70
2023-03-22T13:35:54.413Z,78.00
2023-03-22T13:38:43.420Z,76.10
2023-03-22T13:41:35.143Z,76.30
2023-03-22T13:44:38.038Z,74.40
2023-03-22T13:47:40.582Z,69.20
2023-03-22T13:50:31.096Z,72.90
2023-03-22T13:53:28.840Z,76.60
2023-03-22T13:56:40.730Z,71.80
2023-03-22T13:59:26.190Z,75.70
2023-03-22T14:02:34.888Z,72.60
2023-03-22T14:05:24.697Z,66.30
2023-03-22T14:08:25.016Z,69.70
2023-03-22T14:11:36.640Z,67.40
2023-03-22T14:14:36.461Z,64.30
2023-03-22T14:18:03.048Z,70.00
2023-03-22T14:21:13.996Z,68.20
